Time;durP1;ratioP1;P1;durP2;ratioP2;P2;SDS_P1;SDS_P2;PMS_P1;PMS_P2;Temp;Humidity;BMP_temperature;BMP_pressure;BME280_temperature;BME280_humidity;BME280_pressure;Samples;Min_cycle;Max_cycle;Signal;HPM_P1;HPM_P2
2022/04/06 00:00:40;;;;;;;22.53;8.70;;;;;;;;;;5051795;28;20219;-69
2022/04/06 00:03:05;;;;;;;17.57;8.17;;;;;;;;;;5050611;28;20182;-68
2022/04/06 00:05:30;;;;;;;30.83;9.50;;;;;;;;;;5052032;28;20260;-68
2022/04/06 00:07:56;;;;;;;15.63;7.77;;;;;;;;;;5040116;28;20288;-68
2022/04/06 00:10:21;;;;;;;20.80;8.13;;;;;;;;;;5046071;28;20643;-68
2022/04/06 00:12:46;;;;;;;18.83;8.37;;;;;;;;;;5044253;28;20273;-69
2022/04/06 00:15:11;;;;;;;23.00;7.63;;;;;;;;;;5043250;28;20269;-70
2022/04/06 00:17:37;;;;;;;21.87;8.73;;;;;;;;;;5048260;28;20682;-69
2022/04/06 00:20:03;;;;;;;17.87;8.23;;;;;;;;;;5041389;28;20201;-69
2022/04/06 00:22:29;;;;;;;21.70;9.03;;;;;;;;;;5047404;28;20173;-68
2022/04/06 00:24:54;;;;;;;23.93;8.90;;;;;;;;;;5043354;28;20175;-68
2022/04/06 00:27:19;;;;;;;22.13;8.67;;;;;;;;;;5048231;28;20303;-68
2022/04/06 00:29:45;;;;;;;20.63;7.70;;;;;;;;;;5048057;28;20173;-69
2022/04/06 00:32:10;;;;;;;31.10;9.20;;;;;;;;;;5050418;28;20532;-69
2022/04/06 00:37:19;;;;;;;19.93;7.60;;;;;;;;;;5049132;28;20199;-69
2022/04/06 00:39:44;;;;;;;21.53;7.73;;;;;;;;;;5051719;28;20663;-69
2022/04/06 00:42:09;;;;;;;16.43;7.40;;;;;;;;;;5050478;28;20181;-70
2022/04/06 00:44:35;;;;;;;18.43;8.73;;;;;;;;;;5049660;28;20174;-70
2022/04/06 00:47:04;;;;;;;21.43;8.13;;;;;;;;;;5046716;28;20642;-70
2022/04/06 00:49:29;;;;;;;19.93;8.57;;;;;;;;;;5040709;28;20184;-68
2022/04/06 00:51:54;;;;;;;23.67;8.07;;;;;;;;;;5045794;28;20178;-68
2022/04/06 00:54:21;;;;;;;26.97;8.17;;;;;;;;;;5052147;28;20178;-69
2022/04/06 00:56:46;;;;;;;20.67;8.20;;;;;;;;;;5050072;28;20547;-70
2022/04/06 00:59:13;;;;;;;26.00;8.67;;;;;;;;;;5049673;28;20197;-69
2022/04/06 01:01:39;;;;;;;17.87;7.87;;;;;;;;;;5050208;28;20753;-67
2022/04/06 01:04:04;;;;;;;19.10;8.90;;;;;;;;;;5048769;28;20256;-70
2022/04/06 01:06:29;;;;;;;24.97;8.77;;;;;;;;;;5049927;28;20476;-70
2022/04/06 01:08:55;;;;;;;21.73;8.40;;;;;;;;;;5050067;28;20740;-70
2022/04/06 01:11:20;;;;;;;22.37;8.57;;;;;;;;;;5048963;28;20576;-69
2022/04/06 01:13:46;;;;;;;18.97;7.53;;;;;;;;;;5046392;28;20177;-68
2022/04/06 01:16:11;;;;;;;19.43;8.57;;;;;;;;;;5047333;28;20584;-69
2022/04/06 01:18:36;;;;;;;21.77;7.77;;;;;;;;;;5044751;28;20204;-70
2022/04/06 01:21:02;;;;;;;14.67;7.07;;;;;;;;;;5051683;28;20215;-69
2022/04/06 01:23:27;;;;;;;20.87;7.17;;;;;;;;;;5048363;28;20185;-69
2022/04/06 01:25:52;;;;;;;20.93;6.90;;;;;;;;;;5050719;28;20643;-69
2022/04/06 01:28:17;;;;;;;14.90;6.47;;;;;;;;;;5048774;28;20201;-67
2022/04/06 01:30:42;;;;;;;18.10;6.37;;;;;;;;;;5048414;28;20647;-69
2022/04/06 01:33:08;;;;;;;16.13;6.83;;;;;;;;;;5050055;28;20217;-70
2022/04/06 01:35:36;;;;;;;16.60;6.67;;;;;;;;;;5047209;28;20240;-70
2022/04/06 01:38:01;;;;;;;13.13;5.63;;;;;;;;;;5050597;28;20721;-69
2022/04/06 01:40:26;;;;;;;13.57;7.07;;;;;;;;;;5051625;28;20217;-70
2022/04/06 01:42:52;;;;;;;17.33;6.60;;;;;;;;;;5049933;28;20220;-67
2022/04/06 01:45:17;;;;;;;15.80;5.97;;;;;;;;;;5049113;28;20192;-69
2022/04/06 01:47:42;;;;;;;20.87;7.30;;;;;;;;;;5044047;28;20236;-69
2022/04/06 01:52:51;;;;;;;20.63;7.40;;;;;;;;;;5049134;28;20243;-70
2022/04/06 01:55:16;;;;;;;20.80;8.80;;;;;;;;;;5043431;28;20655;-70
2022/04/06 01:57:42;;;;;;;14.60;6.10;;;;;;;;;;5048986;28;20247;-70
2022/04/06 02:00:09;;;;;;;16.63;5.73;;;;;;;;;;5050257;28;20216;-70
2022/04/06 02:02:35;;;;;;;15.27;5.60;;;;;;;;;;5050248;28;20260;-70
2022/04/06 02:05:00;;;;;;;13.00;5.37;;;;;;;;;;5049293;28;20257;-69
2022/04/06 02:07:26;;;;;;;19.57;5.87;;;;;;;;;;5050163;28;20228;-70
2022/04/06 02:09:51;;;;;;;16.27;5.43;;;;;;;;;;5043380;28;20178;-70
2022/04/06 02:12:16;;;;;;;11.97;5.07;;;;;;;;;;5048277;28;20197;-70
2022/04/06 02:14:42;;;;;;;14.83;5.13;;;;;;;;;;5049659;28;20180;-70
2022/04/06 02:17:08;;;;;;;13.20;5.60;;;;;;;;;;5046170;28;20644;-68
2022/04/06 02:19:35;;;;;;;11.87;5.03;;;;;;;;;;5042891;28;20174;-68
2022/04/06 02:22:00;;;;;;;10.37;4.20;;;;;;;;;;5039264;28;20186;-67
2022/04/06 02:24:25;;;;;;;12.57;3.97;;;;;;;;;;5048680;28;20178;-68
2022/04/06 02:26:50;;;;;;;10.77;4.03;;;;;;;;;;5039513;28;20651;-68
2022/04/06 02:29:16;;;;;;;15.00;3.23;;;;;;;;;;5038510;28;20409;-68
2022/04/06 02:31:41;;;;;;;11.23;3.60;;;;;;;;;;5048864;28;20516;-68
2022/04/06 02:34:06;;;;;;;9.57;3.53;;;;;;;;;;5050313;28;20168;-69
2022/04/06 02:36:31;;;;;;;20.63;3.90;;;;;;;;;;5050807;28;20186;-68
2022/04/06 02:38:56;;;;;;;13.70;3.23;;;;;;;;;;5042136;28;20201;-69
2022/04/06 02:41:22;;;;;;;12.27;2.93;;;;;;;;;;5049420;28;20208;-68
2022/04/06 02:43:47;;;;;;;9.00;3.80;;;;;;;;;;5046526;28;20170;-68
2022/04/06 02:46:13;;;;;;;8.60;2.70;;;;;;;;;;5046209;28;20236;-68
2022/04/06 02:48:38;;;;;;;9.90;2.80;;;;;;;;;;5046776;28;20193;-69
2022/04/06 02:51:03;;;;;;;9.10;2.60;;;;;;;;;;5048216;28;20196;-69
2022/04/06 02:53:29;;;;;;;7.03;2.80;;;;;;;;;;5049575;28;20185;-67
2022/04/06 02:55:54;;;;;;;8.57;3.27;;;;;;;;;;5048806;28;20209;-67
2022/04/06 02:58:19;;;;;;;9.50;3.30;;;;;;;;;;5049864;28;20259;-68
2022/04/06 03:00:44;;;;;;;14.27;2.80;;;;;;;;;;5048941;28;20205;-68
2022/04/06 03:03:09;;;;;;;8.80;3.53;;;;;;;;;;5048414;28;20170;-68
2022/04/06 03:05:34;;;;;;;11.27;2.40;;;;;;;;;;5044739;28;20554;-70
2022/04/06 03:08:00;;;;;;;8.83;2.77;;;;;;;;;;5045975;28;20197;-68
2022/04/06 03:10:25;;;;;;;10.43;2.40;;;;;;;;;;5049049;28;20916;-68
2022/04/06 03:12:50;;;;;;;9.33;3.43;;;;;;;;;;5050181;28;20231;-68
2022/04/06 03:15:15;;;;;;;9.47;2.77;;;;;;;;;;5049621;28;20178;-68
2022/04/06 03:17:41;;;;;;;9.37;2.43;;;;;;;;;;5045925;28;20205;-68
2022/04/06 03:20:07;;;;;;;6.70;3.07;;;;;;;;;;5047228;28;20217;-68
2022/04/06 03:22:33;;;;;;;12.20;2.93;;;;;;;;;;5052127;28;20198;-69
2022/04/06 03:24:58;;;;;;;7.50;2.83;;;;;;;;;;5049573;28;20205;-69
2022/04/06 03:27:23;;;;;;;10.47;2.40;;;;;;;;;;5048151;28;20201;-69
2022/04/06 03:29:48;;;;;;;9.07;2.10;;;;;;;;;;5051880;28;20655;-68
2022/04/06 03:32:13;;;;;;;7.17;2.50;;;;;;;;;;5047350;28;20412;-69
2022/04/06 03:34:39;;;;;;;7.67;2.23;;;;;;;;;;5050526;28;20257;-68
2022/04/06 03:37:04;;;;;;;10.50;2.60;;;;;;;;;;5052800;28;20223;-67
2022/04/06 03:39:29;;;;;;;8.20;2.40;;;;;;;;;;5050527;28;20236;-69
2022/04/06 03:41:54;;;;;;;6.70;1.80;;;;;;;;;;5053517;28;20206;-69
2022/04/06 03:44:20;;;;;;;8.07;2.40;;;;;;;;;;5054207;28;20260;-70
2022/04/06 03:46:45;;;;;;;4.80;2.33;;;;;;;;;;5054872;28;20214;-70
2022/04/06 03:49:10;;;;;;;9.80;2.37;;;;;;;;;;5053457;28;20194;-70
2022/04/06 03:51:35;;;;;;;7.70;1.90;;;;;;;;;;5051202;28;20182;-70
2022/04/06 03:54:01;;;;;;;6.13;1.87;;;;;;;;;;5050641;28;20205;-69
2022/04/06 03:56:26;;;;;;;9.53;2.63;;;;;;;;;;5053302;28;20473;-70
2022/04/06 03:58:51;;;;;;;6.07;1.70;;;;;;;;;;5051345;28;20204;-69
2022/04/06 04:01:17;;;;;;;3.77;1.80;;;;;;;;;;5053464;28;20890;-69
2022/04/06 04:03:42;;;;;;;4.53;1.97;;;;;;;;;;5048413;28;20182;-69
2022/04/06 04:06:07;;;;;;;8.73;1.93;;;;;;;;;;5054279;28;20181;-69
2022/04/06 04:08:32;;;;;;;9.10;2.03;;;;;;;;;;5053250;28;20201;-70
2022/04/06 04:10:57;;;;;;;9.43;2.57;;;;;;;;;;5054488;28;20605;-70
2022/04/06 04:13:23;;;;;;;10.80;3.10;;;;;;;;;;5054559;28;20224;-70
2022/04/06 04:15:48;;;;;;;13.70;2.60;;;;;;;;;;5053789;28;20173;-70
2022/04/06 04:18:13;;;;;;;14.43;2.33;;;;;;;;;;5052709;28;20209;-69
2022/04/06 04:20:41;;;;;;;7.30;2.33;;;;;;;;;;5054551;28;20229;-69
2022/04/06 04:23:07;;;;;;;12.77;2.97;;;;;;;;;;5047658;28;20237;-69
2022/04/06 04:25:32;;;;;;;12.60;3.73;;;;;;;;;;5047818;28;20178;-69
2022/04/06 04:27:57;;;;;;;8.63;2.77;;;;;;;;;;5037969;28;20280;-70
2022/04/06 04:30:22;;;;;;;11.53;3.03;;;;;;;;;;5049719;28;20193;-68
2022/04/06 04:32:47;;;;;;;9.87;2.67;;;;;;;;;;5046198;28;20185;-70
2022/04/06 04:35:13;;;;;;;8.87;3.10;;;;;;;;;;5045298;28;20597;-69
2022/04/06 04:37:38;;;;;;;7.03;2.90;;;;;;;;;;5036677;28;20206;-67
2022/04/06 04:40:04;;;;;;;13.30;3.63;;;;;;;;;;5036887;28;20758;-67
2022/04/06 04:42:29;;;;;;;5.53;2.00;;;;;;;;;;5057137;28;20717;-70
2022/04/06 04:44:55;;;;;;;12.70;3.60;;;;;;;;;;5052321;28;20177;-70
2022/04/06 04:47:20;;;;;;;7.70;2.50;;;;;;;;;;5051074;28;20182;-68
2022/04/06 04:49:45;;;;;;;7.93;3.47;;;;;;;;;;5045573;28;20654;-70
2022/04/06 04:52:11;;;;;;;9.73;2.83;;;;;;;;;;5050851;28;20734;-69
2022/04/06 04:54:36;;;;;;;10.70;2.97;;;;;;;;;;5051628;28;20185;-69
2022/04/06 04:57:01;;;;;;;13.23;3.93;;;;;;;;;;5045017;28;20203;-69
2022/04/06 04:59:26;;;;;;;7.57;2.53;;;;;;;;;;5039684;28;20190;-69
2022/04/06 05:01:52;;;;;;;8.07;2.93;;;;;;;;;;5037257;28;20189;-69
2022/04/06 05:04:17;;;;;;;10.60;3.20;;;;;;;;;;5053177;28;20185;-69
2022/04/06 05:06:43;;;;;;;11.27;2.93;;;;;;;;;;5052061;28;20251;-70
2022/04/06 05:09:08;;;;;;;9.77;3.30;;;;;;;;;;5052086;28;20197;-69
2022/04/06 05:11:33;;;;;;;5.77;2.67;;;;;;;;;;5050806;28;20188;-69
2022/04/06 05:13:58;;;;;;;12.90;2.77;;;;;;;;;;5048729;28;20177;-68
2022/04/06 05:16:24;;;;;;;8.97;3.10;;;;;;;;;;5050527;28;20169;-68
2022/04/06 05:18:49;;;;;;;8.93;2.90;;;;;;;;;;5049247;28;20276;-68
2022/04/06 05:21:14;;;;;;;10.77;3.00;;;;;;;;;;5049830;28;20693;-70
2022/04/06 05:23:39;;;;;;;9.10;3.43;;;;;;;;;;5051437;28;20169;-69
2022/04/06 05:26:04;;;;;;;8.27;3.67;;;;;;;;;;5050914;28;20577;-68
2022/04/06 05:28:30;;;;;;;11.37;3.43;;;;;;;;;;5045134;28;20193;-70
2022/04/06 05:30:55;;;;;;;13.00;3.60;;;;;;;;;;5051283;28;20177;-67
2022/04/06 05:33:20;;;;;;;20.70;4.97;;;;;;;;;;5049081;28;20200;-70
2022/04/06 05:35:45;;;;;;;13.67;4.10;;;;;;;;;;5050144;28;20177;-69
2022/04/06 05:38:11;;;;;;;11.07;4.20;;;;;;;;;;5049867;28;20694;-69
2022/04/06 05:40:36;;;;;;;12.20;4.23;;;;;;;;;;5051635;28;20239;-68
2022/04/06 05:43:01;;;;;;;11.00;4.37;;;;;;;;;;5046947;28;20239;-67
2022/04/06 05:45:26;;;;;;;12.40;4.50;;;;;;;;;;5045644;28;20274;-69
2022/04/06 05:47:52;;;;;;;11.30;4.70;;;;;;;;;;5047164;28;20207;-68
2022/04/06 05:50:17;;;;;;;10.83;4.37;;;;;;;;;;5049116;28;20182;-68
2022/04/06 05:52:42;;;;;;;14.50;5.33;;;;;;;;;;5050645;28;20185;-69
2022/04/06 05:55:08;;;;;;;10.77;4.73;;;;;;;;;;5050497;28;20653;-69
2022/04/06 05:57:33;;;;;;;14.97;4.60;;;;;;;;;;5044506;28;20209;-69
2022/04/06 05:59:58;;;;;;;14.57;4.20;;;;;;;;;;5049250;28;20628;-68
2022/04/06 06:02:24;;;;;;;17.53;5.17;;;;;;;;;;5043299;28;20414;-69
2022/04/06 06:04:50;;;;;;;10.50;4.50;;;;;;;;;;5049646;28;20173;-70
2022/04/06 06:07:17;;;;;;;17.43;5.23;;;;;;;;;;5045950;28;20676;-69
2022/04/06 06:09:43;;;;;;;14.73;4.83;;;;;;;;;;5049677;28;20303;-69
2022/04/06 06:12:08;;;;;;;7.77;3.53;;;;;;;;;;5046561;28;20268;-69
2022/04/06 06:14:33;;;;;;;10.83;4.87;;;;;;;;;;5047552;28;20200;-69
2022/04/06 06:16:58;;;;;;;13.27;3.33;;;;;;;;;;5047469;28;20189;-70
2022/04/06 06:19:24;;;;;;;15.93;4.73;;;;;;;;;;5041970;28;20205;-69
2022/04/06 06:21:49;;;;;;;5.83;3.00;;;;;;;;;;5042070;28;20750;-69
2022/04/06 06:24:14;;;;;;;6.13;2.60;;;;;;;;;;5047768;28;20189;-69
2022/04/06 06:26:42;;;;;;;8.83;3.07;;;;;;;;;;5042212;28;20253;-69
2022/04/06 06:29:07;;;;;;;10.63;3.63;;;;;;;;;;5049789;28;20193;-67
2022/04/06 06:31:32;;;;;;;12.87;3.57;;;;;;;;;;5049485;28;20193;-69
2022/04/06 06:33:58;;;;;;;9.50;2.30;;;;;;;;;;5049706;28;20687;-70
2022/04/06 06:36:23;;;;;;;11.50;2.57;;;;;;;;;;5048373;28;20277;-69
2022/04/06 06:38:49;;;;;;;11.93;3.50;;;;;;;;;;5049956;28;20220;-69
2022/04/06 06:41:14;;;;;;;7.50;1.97;;;;;;;;;;5048682;28;20209;-70
2022/04/06 06:43:39;;;;;;;8.10;2.60;;;;;;;;;;5048026;28;20245;-68
2022/04/06 06:46:05;;;;;;;6.57;2.30;;;;;;;;;;5049846;28;20169;-68
2022/04/06 06:48:30;;;;;;;6.50;2.23;;;;;;;;;;5047588;28;20272;-68
2022/04/06 06:50:55;;;;;;;7.63;2.00;;;;;;;;;;5045269;28;20173;-68
2022/04/06 06:53:20;;;;;;;9.03;2.10;;;;;;;;;;5040414;28;20331;-70
2022/04/06 06:55:46;;;;;;;10.20;2.20;;;;;;;;;;5048411;28;20190;-69
2022/04/06 06:58:11;;;;;;;7.97;2.13;;;;;;;;;;5043305;28;20237;-69
2022/04/06 07:00:36;;;;;;;10.30;2.57;;;;;;;;;;5048958;28;20205;-69
2022/04/06 07:03:02;;;;;;;3.00;1.60;;;;;;;;;;5046764;28;20179;-69
2022/04/06 07:05:28;;;;;;;6.43;1.73;;;;;;;;;;5048008;28;20192;-70
2022/04/06 07:08:01;;;;;;;12.30;3.00;;;;;;;;;;5048722;28;20225;-69
2022/04/06 07:10:26;;;;;;;10.87;3.00;;;;;;;;;;5047145;28;20189;-69
2022/04/06 07:12:52;;;;;;;10.23;1.83;;;;;;;;;;5050221;28;20252;-69
2022/04/06 07:15:17;;;;;;;6.33;2.10;;;;;;;;;;5047000;28;20240;-69
2022/04/06 07:17:42;;;;;;;10.00;2.00;;;;;;;;;;5043487;28;20197;-69
2022/04/06 07:20:09;;;;;;;9.63;1.90;;;;;;;;;;5046073;28;20205;-69
2022/04/06 07:22:34;;;;;;;8.37;2.43;;;;;;;;;;5050693;28;20166;-69
2022/04/06 07:24:59;;;;;;;5.13;2.00;;;;;;;;;;5053727;28;20492;-69
2022/04/06 07:27:24;;;;;;;9.50;1.90;;;;;;;;;;5053478;28;20198;-69
2022/04/06 07:29:51;;;;;;;8.03;2.20;;;;;;;;;;5054062;28;20257;-69
2022/04/06 07:32:16;;;;;;;8.13;2.00;;;;;;;;;;5049034;28;20175;-69
2022/04/06 07:34:43;;;;;;;8.53;2.00;;;;;;;;;;5049220;28;20178;-70
2022/04/06 07:37:08;;;;;;;8.67;2.40;;;;;;;;;;5043691;28;20205;-69
2022/04/06 07:39:33;;;;;;;8.53;1.93;;;;;;;;;;5046312;28;20174;-69
2022/04/06 07:41:59;;;;;;;7.60;1.87;;;;;;;;;;5051488;28;20276;-69
2022/04/06 07:44:24;;;;;;;6.27;1.80;;;;;;;;;;5043232;28;20236;-69
2022/04/06 07:46:50;;;;;;;8.23;2.00;;;;;;;;;;5052451;28;20169;-69
2022/04/06 07:49:16;;;;;;;5.70;2.00;;;;;;;;;;5047170;28;20197;-70
2022/04/06 07:51:41;;;;;;;7.40;2.50;;;;;;;;;;5053745;28;20169;-70
2022/04/06 07:54:06;;;;;;;6.93;2.60;;;;;;;;;;5041724;28;20193;-69
2022/04/06 07:56:31;;;;;;;5.63;2.70;;;;;;;;;;5042574;28;20177;-69
2022/04/06 07:58:56;;;;;;;9.47;2.93;;;;;;;;;;5049367;28;20201;-70
2022/04/06 08:01:22;;;;;;;6.50;2.23;;;;;;;;;;5039080;28;20809;-67
2022/04/06 08:03:47;;;;;;;11.20;2.47;;;;;;;;;;5049914;28;20194;-69
2022/04/06 08:06:12;;;;;;;7.20;2.20;;;;;;;;;;5051702;28;20170;-68
2022/04/06 08:08:37;;;;;;;8.73;2.83;;;;;;;;;;5044747;28;20840;-70
2022/04/06 08:11:05;;;;;;;11.57;3.73;;;;;;;;;;5050602;28;20174;-70
2022/04/06 08:13:30;;;;;;;8.13;2.57;;;;;;;;;;5042828;28;20177;-70
2022/04/06 08:15:57;;;;;;;8.13;2.30;;;;;;;;;;5050332;28;20196;-70
2022/04/06 08:18:23;;;;;;;9.63;2.80;;;;;;;;;;5047393;28;20201;-70
2022/04/06 08:20:48;;;;;;;12.97;3.30;;;;;;;;;;5047678;28;20190;-69
2022/04/06 08:23:20;;;;;;;11.00;2.83;;;;;;;;;;5050788;28;20531;-67
2022/04/06 08:26:17;;;;;;;8.10;2.80;;;;;;;;;;5048284;28;20673;-67
2022/04/06 08:28:42;;;;;;;12.27;2.70;;;;;;;;;;5047630;28;20197;-67
2022/04/06 08:31:07;;;;;;;10.00;3.30;;;;;;;;;;5048808;28;20576;-67
2022/04/06 08:33:38;;;;;;;9.17;3.10;;;;;;;;;;5052709;28;20192;-68
2022/04/06 08:36:06;;;;;;;12.97;3.53;;;;;;;;;;5047887;28;20251;-69
2022/04/06 08:38:37;;;;;;;8.40;3.10;;;;;;;;;;5049162;28;20237;-70
2022/04/06 08:41:08;;;;;;;9.10;3.43;;;;;;;;;;5044442;28;20283;-70
2022/04/06 08:43:41;;;;;;;12.33;3.10;;;;;;;;;;5050509;28;20203;-69
2022/04/06 08:46:06;;;;;;;10.03;4.00;;;;;;;;;;5047898;28;20543;-69
2022/04/06 08:48:32;;;;;;;13.77;4.90;;;;;;;;;;5047573;28;20276;-69
2022/04/06 08:51:00;;;;;;;12.07;4.70;;;;;;;;;;5052106;28;20178;-69
2022/04/06 08:53:25;;;;;;;9.97;3.93;;;;;;;;;;5048506;28;20274;-69
2022/04/06 08:55:51;;;;;;;11.17;4.23;;;;;;;;;;5049891;28;20718;-69
2022/04/06 08:58:16;;;;;;;7.93;3.60;;;;;;;;;;5048560;28;20201;-69
2022/04/06 09:00:41;;;;;;;13.50;5.63;;;;;;;;;;5050237;28;20690;-69
2022/04/06 09:03:07;;;;;;;8.27;4.30;;;;;;;;;;5032375;28;20208;-70
2022/04/06 09:05:33;;;;;;;7.33;3.97;;;;;;;;;;5033219;28;20178;-66
2022/04/06 09:07:58;;;;;;;10.80;4.90;;;;;;;;;;5050251;28;20691;-67
2022/04/06 09:10:28;;;;;;;8.63;4.57;;;;;;;;;;5046081;28;20280;-69
2022/04/06 09:13:05;;;;;;;10.80;4.70;;;;;;;;;;5045629;28;20273;-69
2022/04/06 09:15:30;;;;;;;11.83;5.63;;;;;;;;;;5049322;28;20261;-69
2022/04/06 09:17:59;;;;;;;15.53;6.50;;;;;;;;;;5050239;28;20301;-70
2022/04/06 09:20:25;;;;;;;13.57;5.03;;;;;;;;;;5051056;28;20201;-69
2022/04/06 09:22:50;;;;;;;12.07;5.03;;;;;;;;;;5054104;28;20371;-69
2022/04/06 09:25:18;;;;;;;14.07;5.87;;;;;;;;;;5049080;28;20182;-69
2022/04/06 09:27:43;;;;;;;13.20;4.90;;;;;;;;;;5044459;28;20202;-70
2022/04/06 09:30:09;;;;;;;16.23;6.07;;;;;;;;;;5048087;28;20536;-70
2022/04/06 09:32:34;;;;;;;20.37;6.07;;;;;;;;;;5051220;28;20260;-69
2022/04/06 09:34:59;;;;;;;10.80;5.10;;;;;;;;;;5051572;28;20626;-69
2022/04/06 09:37:26;;;;;;;10.27;5.43;;;;;;;;;;5048442;28;20758;-69
2022/04/06 09:39:51;;;;;;;10.23;4.67;;;;;;;;;;5063375;28;20219;-67
2022/04/06 09:42:21;;;;;;;12.87;5.57;;;;;;;;;;5060847;28;20178;-69
2022/04/06 09:47:40;;;;;;;8.47;5.50;;;;;;;;;;5051910;28;20212;-68
2022/04/06 09:50:12;;;;;;;13.57;5.67;;;;;;;;;;5044017;28;20181;-69
2022/04/06 09:52:37;;;;;;;9.70;5.27;;;;;;;;;;5051071;28;20185;-69
2022/04/06 09:55:05;;;;;;;9.87;5.03;;;;;;;;;;5048801;28;20645;-69
2022/04/06 09:57:33;;;;;;;16.37;6.90;;;;;;;;;;5048826;28;20212;-69
2022/04/06 09:59:59;;;;;;;12.33;5.43;;;;;;;;;;5049738;28;20240;-68
2022/04/06 10:02:24;;;;;;;15.93;7.30;;;;;;;;;;5048077;28;20198;-68
2022/04/06 10:04:49;;;;;;;12.13;5.90;;;;;;;;;;5048546;28;20224;-68
2022/04/06 10:07:15;;;;;;;12.40;6.10;;;;;;;;;;5027972;28;20256;-69
2022/04/06 10:09:41;;;;;;;14.83;6.30;;;;;;;;;;5047913;28;20173;-71
2022/04/06 10:12:07;;;;;;;13.87;5.67;;;;;;;;;;5049239;28;20182;-68
2022/04/06 10:14:32;;;;;;;11.53;5.97;;;;;;;;;;5045694;28;20185;-68
2022/04/06 10:16:58;;;;;;;15.83;6.30;;;;;;;;;;5050794;28;20181;-70
2022/04/06 10:19:29;;;;;;;10.37;5.53;;;;;;;;;;5045188;28;20206;-67
2022/04/06 10:21:56;;;;;;;11.13;5.50;;;;;;;;;;5045328;28;20208;-68
2022/04/06 10:24:46;;;;;;;18.03;6.57;;;;;;;;;;5045226;28;20312;-69
2022/04/06 10:27:23;;;;;;;15.07;6.50;;;;;;;;;;5048007;28;20196;-69
2022/04/06 10:30:07;;;;;;;12.13;6.00;;;;;;;;;;5047317;28;20186;-70
2022/04/06 10:32:34;;;;;;;11.80;5.57;;;;;;;;;;5050207;28;20169;-69
2022/04/06 10:35:18;;;;;;;16.23;6.40;;;;;;;;;;5045434;28;20201;-68
2022/04/06 10:37:47;;;;;;;13.73;6.37;;;;;;;;;;5048224;28;20194;-67
2022/04/06 10:40:12;;;;;;;16.23;6.33;;;;;;;;;;5047553;28;20264;-68
2022/04/06 10:42:38;;;;;;;16.93;5.50;;;;;;;;;;5046984;28;20633;-67
2022/04/06 10:45:05;;;;;;;14.40;5.60;;;;;;;;;;5047781;28;20173;-68
2022/04/06 10:47:32;;;;;;;9.50;5.73;;;;;;;;;;5046397;28;20205;-67
2022/04/06 10:50:19;;;;;;;11.27;5.57;;;;;;;;;;5048283;28;20631;-68
2022/04/06 10:52:44;;;;;;;10.13;4.90;;;;;;;;;;5049717;28;20184;-68
2022/04/06 10:55:11;;;;;;;9.73;5.70;;;;;;;;;;5046915;28;20181;-70
2022/04/06 10:57:55;;;;;;;8.60;4.93;;;;;;;;;;5043134;28;20749;-69
2022/04/06 11:00:21;;;;;;;9.87;4.77;;;;;;;;;;5045865;28;20240;-70
2022/04/06 11:02:50;;;;;;;12.77;5.80;;;;;;;;;;5049862;28;20621;-68
2022/04/06 11:05:34;;;;;;;10.13;5.50;;;;;;;;;;5049375;28;20177;-69
2022/04/06 11:10:43;;;;;;;12.17;6.00;;;;;;;;;;5034260;28;20566;-70
2022/04/06 11:13:10;;;;;;;11.50;5.83;;;;;;;;;;5046390;28;20185;-69
2022/04/06 11:15:41;;;;;;;13.87;5.90;;;;;;;;;;5049662;28;20182;-69
2022/04/06 11:18:26;;;;;;;10.30;4.67;;;;;;;;;;5044027;28;20208;-68
2022/04/06 11:21:01;;;;;;;7.57;4.73;;;;;;;;;;5043204;28;20652;-69
2022/04/06 11:23:28;;;;;;;9.30;5.10;;;;;;;;;;5045634;28;20188;-66
2022/04/06 11:25:53;;;;;;;8.20;4.63;;;;;;;;;;5045226;28;20188;-69
2022/04/06 11:28:19;;;;;;;12.47;4.87;;;;;;;;;;5048734;28;20189;-68
2022/04/06 11:30:44;;;;;;;9.00;4.13;;;;;;;;;;5042892;28;20182;-68
2022/04/06 11:33:09;;;;;;;9.90;4.47;;;;;;;;;;5049938;28;20599;-67
2022/04/06 11:35:36;;;;;;;8.60;5.40;;;;;;;;;;5050889;28;20608;-68
2022/04/06 11:38:05;;;;;;;10.07;4.50;;;;;;;;;;5047358;28;20214;-68
2022/04/06 11:40:31;;;;;;;9.50;4.43;;;;;;;;;;5051032;28;20198;-68
2022/04/06 11:42:57;;;;;;;8.07;4.30;;;;;;;;;;5052237;28;20509;-68
2022/04/06 11:45:26;;;;;;;10.47;5.13;;;;;;;;;;5051970;28;20181;-68
2022/04/06 11:47:56;;;;;;;12.73;3.90;;;;;;;;;;5047802;28;20281;-68
2022/04/06 11:50:22;;;;;;;7.80;3.93;;;;;;;;;;5052346;28;20235;-69
2022/04/06 11:52:47;;;;;;;8.30;4.03;;;;;;;;;;5051885;28;20198;-67
2022/04/06 11:55:13;;;;;;;7.43;4.33;;;;;;;;;;5050257;28;20587;-69
2022/04/06 11:57:39;;;;;;;7.10;4.40;;;;;;;;;;5049809;28;20671;-69
2022/04/06 12:00:11;;;;;;;10.10;4.60;;;;;;;;;;5048137;28;20272;-69
2022/04/06 12:02:46;;;;;;;6.80;4.00;;;;;;;;;;5056101;28;20509;-69
2022/04/06 12:05:11;;;;;;;8.30;4.40;;;;;;;;;;5049491;28;20212;-67
2022/04/06 12:07:37;;;;;;;8.23;5.13;;;;;;;;;;5052851;28;20283;-69
2022/04/06 12:10:02;;;;;;;10.40;5.00;;;;;;;;;;5046735;28;20186;-68
2022/04/06 12:12:27;;;;;;;14.67;6.10;;;;;;;;;;5031518;28;20635;-69
2022/04/06 12:14:52;;;;;;;8.80;4.43;;;;;;;;;;5051021;28;20747;-69
2022/04/06 12:17:18;;;;;;;8.53;3.77;;;;;;;;;;5048599;28;20186;-69
2022/04/06 12:19:43;;;;;;;11.27;4.87;;;;;;;;;;5042153;28;20265;-70
2022/04/06 12:22:11;;;;;;;8.80;4.27;;;;;;;;;;5037939;28;20506;-69
2022/04/06 12:24:40;;;;;;;7.23;4.20;;;;;;;;;;5051378;28;20174;-69
2022/04/06 12:27:05;;;;;;;13.07;5.33;;;;;;;;;;5048906;28;20178;-69
2022/04/06 12:29:35;;;;;;;10.07;4.50;;;;;;;;;;5045524;28;20223;-69
2022/04/06 12:32:01;;;;;;;7.03;3.90;;;;;;;;;;5049686;28;20616;-69
2022/04/06 12:34:29;;;;;;;4.87;3.77;;;;;;;;;;5046764;28;20214;-69
2022/04/06 12:36:54;;;;;;;5.60;4.10;;;;;;;;;;5052651;28;20223;-68
2022/04/06 12:39:20;;;;;;;6.77;3.90;;;;;;;;;;5045611;28;20221;-70
2022/04/06 12:41:57;;;;;;;7.43;3.70;;;;;;;;;;5046919;28;20254;-69
2022/04/06 12:44:22;;;;;;;7.40;3.30;;;;;;;;;;5047943;28;20632;-69
2022/04/06 12:46:48;;;;;;;6.53;3.07;;;;;;;;;;5049870;28;20199;-70
2022/04/06 12:49:16;;;;;;;7.33;3.20;;;;;;;;;;5048552;28;20592;-70
2022/04/06 12:51:41;;;;;;;3.67;2.93;;;;;;;;;;5052309;28;20170;-69
2022/04/06 12:54:07;;;;;;;6.53;2.90;;;;;;;;;;5049540;28;20170;-69
2022/04/06 12:56:33;;;;;;;11.40;2.90;;;;;;;;;;5043072;28;20668;-69
2022/04/06 12:59:08;;;;;;;8.50;3.70;;;;;;;;;;5049028;28;20208;-70
2022/04/06 13:01:42;;;;;;;4.80;3.70;;;;;;;;;;5044558;28;20201;-70
2022/04/06 13:04:07;;;;;;;5.93;3.90;;;;;;;;;;5042062;28;20231;-69
2022/04/06 13:06:32;;;;;;;9.10;4.53;;;;;;;;;;5048692;28;20576;-69
2022/04/06 13:08:57;;;;;;;8.60;3.93;;;;;;;;;;5043430;28;20273;-69
2022/04/06 13:11:22;;;;;;;6.60;3.70;;;;;;;;;;5046412;28;20603;-69
2022/04/06 13:13:48;;;;;;;7.30;3.40;;;;;;;;;;5035676;28;20686;-69
2022/04/06 13:16:13;;;;;;;5.23;3.40;;;;;;;;;;5048470;28;20190;-69
2022/04/06 13:18:38;;;;;;;4.53;3.00;;;;;;;;;;5049381;28;20220;-69
2022/04/06 13:21:03;;;;;;;5.07;3.40;;;;;;;;;;5048514;28;20198;-69
2022/04/06 13:23:29;;;;;;;6.00;3.03;;;;;;;;;;5050009;28;20248;-68
2022/04/06 13:25:54;;;;;;;4.77;2.83;;;;;;;;;;5049317;28;20185;-69
2022/04/06 13:28:21;;;;;;;5.57;3.10;;;;;;;;;;5042441;28;20202;-69
2022/04/06 13:30:46;;;;;;;5.13;2.93;;;;;;;;;;5047328;28;20169;-70
2022/04/06 13:33:11;;;;;;;4.53;3.13;;;;;;;;;;5051378;28;20221;-69
2022/04/06 13:35:37;;;;;;;3.63;3.03;;;;;;;;;;5045786;28;20177;-69
2022/04/06 13:38:02;;;;;;;5.07;3.20;;;;;;;;;;5046287;28;20213;-67
2022/04/06 13:40:27;;;;;;;6.50;3.20;;;;;;;;;;5049325;28;20209;-69
2022/04/06 13:42:53;;;;;;;6.00;3.57;;;;;;;;;;5045598;28;20576;-70
2022/04/06 13:45:18;;;;;;;4.80;3.97;;;;;;;;;;5046744;28;20193;-69
2022/04/06 13:47:43;;;;;;;4.60;3.50;;;;;;;;;;5045272;28;20189;-70
2022/04/06 13:50:08;;;;;;;5.53;3.73;;;;;;;;;;5049739;28;20185;-68
2022/04/06 13:52:39;;;;;;;5.80;3.60;;;;;;;;;;5049872;28;20242;-68
2022/04/06 13:55:04;;;;;;;4.40;3.77;;;;;;;;;;5049377;28;20199;-68
2022/04/06 13:57:29;;;;;;;5.43;4.00;;;;;;;;;;5046860;28;20686;-68
2022/04/06 13:59:56;;;;;;;8.57;4.87;;;;;;;;;;5048700;28;20196;-69
2022/04/06 14:02:21;;;;;;;6.07;5.07;;;;;;;;;;5048092;28;20585;-68
2022/04/06 14:04:46;;;;;;;9.20;5.00;;;;;;;;;;5042150;28;20174;-70
2022/04/06 14:07:11;;;;;;;9.13;4.57;;;;;;;;;;5050007;28;20183;-70
2022/04/06 14:09:37;;;;;;;6.40;5.00;;;;;;;;;;5047799;28;20184;-70
2022/04/06 14:12:02;;;;;;;5.63;4.80;;;;;;;;;;5048088;28;20173;-69
2022/04/06 14:14:28;;;;;;;5.07;4.50;;;;;;;;;;5048954;28;20650;-69
2022/04/06 14:16:53;;;;;;;7.40;4.67;;;;;;;;;;5041427;28;20553;-69
2022/04/06 14:19:18;;;;;;;6.10;4.97;;;;;;;;;;5041738;28;20206;-69
2022/04/06 14:21:43;;;;;;;8.17;4.77;;;;;;;;;;5045889;28;20206;-70
2022/04/06 14:24:08;;;;;;;8.63;5.30;;;;;;;;;;5048879;28;20628;-70
2022/04/06 14:26:34;;;;;;;6.77;4.10;;;;;;;;;;5050584;28;20173;-69
2022/04/06 14:28:59;;;;;;;9.23;6.23;;;;;;;;;;5048226;28;20198;-69
2022/04/06 14:31:25;;;;;;;6.10;4.73;;;;;;;;;;5047627;28;20241;-68
2022/04/06 14:33:50;;;;;;;6.33;5.33;;;;;;;;;;5045733;28;20186;-68
2022/04/06 14:36:16;;;;;;;5.40;4.70;;;;;;;;;;5049165;28;20177;-68
2022/04/06 14:38:41;;;;;;;5.03;4.03;;;;;;;;;;5047263;28;20224;-70
2022/04/06 14:41:08;;;;;;;3.73;3.23;;;;;;;;;;5050357;28;20255;-69